Time;durP1;ratioP1;P1;durP2;ratioP2;P2;SDS_P1;SDS_P2;PMS_P1;PMS_P2;Temp;Humidity;BMP_temperature;BMP_pressure;BME280_temperature;BME280_humidity;BME280_pressure;Samples;Min_cycle;Max_cycle;Signal;HPM_P1;HPM_P2
2021/09/10 00:02:51;;;;;;;6.03;5.63;;;;;;;15.95;96.30;101490.16;6262608;28;20184;-74
2021/09/10 00:05:59;;;;;;;5.70;5.30;;;;;;;15.85;96.80;101500.91;6261875;28;20428;-75
2021/09/10 00:09:03;;;;;;;5.90;5.40;;;;;;;15.82;97.05;101500.56;6262809;28;20252;-75
2021/09/10 00:12:08;;;;;;;7.60;5.78;;;;;;;15.82;97.08;101506.88;6263009;28;20184;-75
2021/09/10 00:15:16;;;;;;;6.07;5.40;;;;;;;15.75;97.82;101506.16;6262619;28;20275;-74
2021/09/10 00:18:22;;;;;;;5.03;4.75;;;;;;;15.60;98.92;101511.25;6262823;28;20223;-74
2021/09/10 00:21:28;;;;;;;5.85;5.30;;;;;;;15.67;98.09;101514.75;6261567;28;20522;-75
2021/09/10 00:24:32;;;;;;;5.97;5.40;;;;;;;15.64;98.30;101517.94;6262525;28;20185;-74
2021/09/10 00:27:36;;;;;;;6.38;5.32;;;;;;;15.67;98.29;101528.50;6262887;28;20231;-75
2021/09/10 00:30:42;;;;;;;6.00;5.40;;;;;;;15.57;98.74;101533.72;6261497;28;20251;-75
2021/09/10 00:33:46;;;;;;;5.72;5.32;;;;;;;15.43;99.80;101546.78;6261380;28;20413;-75
2021/09/10 00:36:55;;;;;;;5.40;5.00;;;;;;;15.35;100.00;101549.88;6261440;28;20399;-75
2021/09/10 00:39:59;;;;;;;6.15;5.65;;;;;;;15.30;100.00;101551.63;6262787;28;20231;-74
2021/09/10 00:43:03;;;;;;;8.95;5.25;;;;;;;15.34;100.00;101548.19;6261301;28;20504;-75
2021/09/10 00:46:07;;;;;;;5.72;5.40;;;;;;;15.42;99.95;101544.25;6262366;28;20227;-75
2021/09/10 00:49:11;;;;;;;6.63;5.00;;;;;;;15.37;99.70;101555.13;6262302;28;20216;-75
2021/09/10 00:52:21;;;;;;;5.13;4.72;;;;;;;15.03;100.00;101557.44;6262702;28;20185;-75
2021/09/10 00:55:26;;;;;;;4.53;4.32;;;;;;;15.12;100.00;101555.22;6262207;28;20284;-74
2021/09/10 00:58:30;;;;;;;4.45;4.05;;;;;;;15.34;99.49;101544.59;6261158;28;20239;-75
2021/09/10 01:01:39;;;;;;;5.90;4.53;;;;;;;15.31;99.42;101554.13;6268587;23;20262;31
2021/09/10 01:04:43;;;;;;;5.13;4.68;;;;;;;15.32;99.54;101554.97;6210322;28;20214;-72
2021/09/10 01:07:49;;;;;;;4.57;4.38;;;;;;;15.47;97.91;101547.19;6211994;28;20569;-72
2021/09/10 01:10:54;;;;;;;4.68;4.47;;;;;;;15.24;99.56;101542.38;6213047;28;20301;-72
2021/09/10 01:13:58;;;;;;;5.05;4.68;;;;;;;15.26;100.00;101547.63;6214971;28;20193;-72
2021/09/10 01:17:03;;;;;;;5.10;4.70;;;;;;;15.33;100.00;101548.41;6216242;28;20565;-71
2021/09/10 01:20:09;;;;;;;5.13;4.80;;;;;;;15.42;98.92;101541.50;6217195;28;20187;-72
2021/09/10 01:23:15;;;;;;;4.45;4.25;;;;;;;15.26;100.00;101550.38;6217484;28;20186;-72
2021/09/10 01:26:23;;;;;;;4.60;4.40;;;;;;;15.20;100.00;101567.81;6216231;28;20508;-72
2021/09/10 01:29:28;;;;;;;5.38;4.97;;;;;;;15.12;100.00;101566.22;6216942;28;20182;-73
2021/09/10 01:32:32;;;;;;;5.20;4.90;;;;;;;15.07;100.00;101564.13;6217453;28;20218;-73
2021/09/10 01:35:37;;;;;;;5.95;4.75;;;;;;;15.14;100.00;101563.22;6217331;28;20214;-73
2021/09/10 01:38:43;;;;;;;4.78;4.47;;;;;;;15.40;100.00;101566.50;6217045;28;20186;-72
2021/09/10 01:41:52;;;;;;;4.70;4.47;;;;;;;15.48;99.36;101570.88;6217407;28;20193;-73
2021/09/10 01:44:56;;;;;;;6.80;4.60;;;;;;;15.49;99.77;101561.53;6216615;28;20190;-73
2021/09/10 01:48:01;;;;;;;5.60;5.18;;;;;;;15.46;99.02;101573.00;6215942;28;20482;-72
2021/09/10 01:51:05;;;;;;;4.53;4.22;;;;;;;15.37;99.87;101579.88;6217198;28;20257;-73
2021/09/10 01:54:11;;;;;;;4.32;4.03;;;;;;;15.48;98.61;101581.88;6215903;28;20511;-72
2021/09/10 01:57:16;;;;;;;5.13;4.72;;;;;;;15.45;99.26;101583.19;6215613;28;20453;-73
2021/09/10 02:00:23;;;;;;;4.50;4.10;;;;;;;15.35;100.00;101579.25;6216700;28;20265;-72
2021/09/10 02:03:28;;;;;;;4.90;4.60;;;;;;;15.46;99.51;101584.84;6215789;28;20238;-72
2021/09/10 02:06:33;;;;;;;4.10;3.90;;;;;;;15.50;99.02;101586.09;6215899;28;20261;-72
2021/09/10 02:09:37;;;;;;;5.20;4.80;;;;;;;15.44;99.53;101581.47;6216414;28;20253;-72
2021/09/10 02:12:43;;;;;;;4.20;4.00;;;;;;;15.44;99.33;101575.13;6216647;28;20257;-72
2021/09/10 02:15:48;;;;;;;4.90;4.50;;;;;;;15.37;100.00;101569.72;6216165;28;20186;-72
2021/09/10 02:18:52;;;;;;;5.20;4.93;;;;;;;15.38;100.00;101567.81;6216312;28;20187;-72
2021/09/10 02:21:56;;;;;;;4.75;4.45;;;;;;;15.38;100.00;101565.06;6214890;28;20193;-72
2021/09/10 02:25:01;;;;;;;5.03;4.57;;;;;;;15.30;100.00;101568.13;6215868;28;20186;-72
2021/09/10 02:28:06;;;;;;;5.07;4.68;;;;;;;15.46;100.00;101568.34;6216053;28;20190;-72
2021/09/10 02:31:11;;;;;;;5.50;5.10;;;;;;;15.39;100.00;101572.22;6215343;28;20197;-72
2021/09/10 02:34:15;;;;;;;5.30;4.95;;;;;;;15.37;100.00;101563.38;6214925;28;20377;-72
2021/09/10 02:37:19;;;;;;;8.57;5.63;;;;;;;15.38;100.00;101570.56;6215217;28;20221;-72
2021/09/10 02:40:23;;;;;;;5.90;5.40;;;;;;;15.45;100.00;101565.81;6214578;28;20467;-72
2021/09/10 02:43:29;;;;;;;7.20;5.53;;;;;;;15.51;100.00;101564.94;6215303;28;20241;-72
2021/09/10 02:46:34;;;;;;;7.10;6.35;;;;;;;15.49;100.00;101567.03;6215609;28;20261;-72
2021/09/10 02:49:38;;;;;;;6.22;5.63;;;;;;;15.52;100.00;101566.59;6215723;28;20191;-72
2021/09/10 02:52:42;;;;;;;7.68;6.05;;;;;;;15.66;100.00;101568.09;6215656;28;20226;-72
2021/09/10 02:55:47;;;;;;;9.23;6.05;;;;;;;15.68;99.49;101571.44;6214346;28;20218;-73
2021/09/10 02:58:55;;;;;;;7.90;6.22;;;;;;;15.51;100.00;101570.44;6214481;28;20591;-72
2021/09/10 03:01:59;;;;;;;8.38;6.18;;;;;;;15.54;100.00;101575.44;6213971;28;20273;-73
2021/09/10 03:05:05;;;;;;;10.68;6.88;;;;;;;15.64;99.99;101586.72;6214088;28;20296;-72
2021/09/10 03:08:10;;;;;;;9.23;7.30;;;;;;;15.47;100.00;101581.03;6214712;28;20236;-72
2021/09/10 03:11:14;;;;;;;9.88;7.22;;;;;;;15.50;100.00;101582.47;6214908;28;20458;-72
2021/09/10 03:14:20;;;;;;;7.88;6.97;;;;;;;15.59;100.00;101584.69;6215125;28;20186;-72
2021/09/10 03:17:31;;;;;;;11.80;7.18;;;;;;;15.57;100.00;101584.06;6214869;28;20215;-72
2021/09/10 03:20:35;;;;;;;10.25;7.10;;;;;;;15.44;100.00;101591.63;6213748;28;20363;-72
2021/09/10 03:23:39;;;;;;;11.60;7.55;;;;;;;15.55;100.00;101593.63;6213747;28;20190;-72
2021/09/10 03:26:44;;;;;;;10.80;7.10;;;;;;;15.52;100.00;101594.09;6213915;28;20294;-72
2021/09/10 03:29:49;;;;;;;7.00;6.25;;;;;;;15.44;100.00;101586.97;6213407;28;20253;-72
2021/09/10 03:32:53;;;;;;;6.38;5.65;;;;;;;15.51;100.00;101592.44;6214580;28;20225;-72
2021/09/10 03:35:59;;;;;;;9.63;6.07;;;;;;;15.40;100.00;101590.41;6213541;28;20193;-72
2021/09/10 03:39:05;;;;;;;6.90;6.25;;;;;;;15.28;100.00;101592.25;6214553;28;20214;-72
2021/09/10 03:42:11;;;;;;;6.07;5.63;;;;;;;15.35;100.00;101585.63;6214640;28;20209;-72
2021/09/10 03:45:17;;;;;;;7.97;6.13;;;;;;;15.31;100.00;101589.88;6214096;28;20253;-72
2021/09/10 03:48:25;;;;;;;6.72;6.15;;;;;;;15.40;100.00;101582.16;6213237;28;20460;-72
2021/09/10 03:51:29;;;;;;;6.95;5.82;;;;;;;15.48;100.00;101576.38;6213616;28;20190;-72
2021/09/10 03:54:36;;;;;;;5.57;5.10;;;;;;;15.59;99.89;101578.34;6213214;28;20248;-72
2021/09/10 03:57:41;;;;;;;5.90;5.35;;;;;;;15.75;98.60;101580.44;6214481;28;20322;-72
2021/09/10 04:00:47;;;;;;;6.40;5.80;;;;;;;15.80;97.39;101574.22;6214425;28;20253;-72
2021/09/10 04:03:53;;;;;;;6.63;5.53;;;;;;;15.83;97.48;101585.63;6214026;28;20265;-72
2021/09/10 04:06:59;;;;;;;9.23;5.80;;;;;;;15.75;97.92;101588.69;6213291;28;20190;-72
2021/09/10 04:10:05;;;;;;;8.20;5.53;;;;;;;15.70;98.05;101596.81;6212895;28;20458;-72
2021/09/10 04:13:10;;;;;;;6.13;5.63;;;;;;;15.73;97.71;101596.34;6214186;28;20217;-72
2021/09/10 04:16:21;;;;;;;6.03;5.53;;;;;;;15.72;98.33;101586.41;6213462;28;20186;-72
2021/09/10 04:19:33;;;;;;;8.13;5.75;;;;;;;15.61;98.81;101585.28;6213519;28;20214;-72
2021/09/10 04:22:37;;;;;;;9.07;6.20;;;;;;;15.63;99.01;101580.41;6212794;28;20478;-72
2021/09/10 04:25:56;;;;;;;6.53;5.93;;;;;;;15.68;98.67;101585.22;6212595;28;20186;-72
2021/09/10 04:29:26;;;;;;;6.25;5.68;;;;;;;15.76;97.84;101579.38;6212626;28;20532;-72
2021/09/10 04:32:36;;;;;;;6.70;5.68;;;;;;;15.74;97.67;101581.50;6213505;28;20265;-72
2021/09/10 04:36:00;;;;;;;8.60;6.18;;;;;;;15.67;98.51;101583.50;6212787;28;20431;-72
2021/09/10 04:39:08;;;;;;;12.38;6.07;;;;;;;15.84;97.34;101576.31;6217411;28;20210;-71
2021/09/10 04:42:14;;;;;;;7.68;6.10;;;;;;;15.73;97.63;101579.84;6218328;28;20186;-71
2021/09/10 04:45:39;;;;;;;13.20;6.30;;;;;;;15.89;96.81;101579.19;6219487;28;20563;-71
2021/09/10 04:48:56;;;;;;;9.20;5.38;;;;;;;15.81;97.33;101587.78;6225280;28;20190;-71
2021/09/10 04:52:20;;;;;;;6.68;6.00;;;;;;;15.59;99.23;101583.84;6225875;28;20202;-71
2021/09/10 04:55:43;;;;;;;7.85;6.18;;;;;;;15.62;99.45;101583.38;6220724;28;20206;-71
2021/09/10 04:58:52;;;;;;;10.10;6.07;;;;;;;15.57;100.00;101591.47;6225441;28;20214;-71
2021/09/10 05:02:20;;;;;;;6.63;6.03;;;;;;;15.66;99.85;101590.09;6225391;28;20299;-71
2021/09/10 05:05:43;;;;;;;6.30;5.70;;;;;;;15.61;99.57;101598.22;6222915;28;20243;-71
2021/09/10 05:09:02;;;;;;;7.93;6.20;;;;;;;15.62;99.24;101583.38;6207720;28;20202;-73
2021/09/10 05:12:27;;;;;;;11.80;5.60;;;;;;;15.73;97.79;101596.34;6221114;28;20229;-71
2021/09/10 05:15:58;;;;;;;6.80;6.10;;;;;;;15.76;98.07;101584.03;6185630;28;20245;-71
2021/09/10 05:19:03;;;;;;;6.15;5.47;;;;;;;15.78;98.39;101593.75;6221350;28;20214;-71
2021/09/10 05:22:08;;;;;;;7.93;6.13;;;;;;;15.84;98.14;101600.22;6220837;28;20186;-71
2021/09/10 05:25:12;;;;;;;7.40;6.03;;;;;;;15.80;99.16;101596.25;6219528;28;20421;-71
2021/09/10 05:28:17;;;;;;;10.43;6.10;;;;;;;15.81;99.58;101593.28;6220600;28;20198;-71
2021/09/10 05:31:25;;;;;;;7.75;5.88;;;;;;;15.71;100.00;101587.50;6219972;28;20213;-71
2021/09/10 05:34:30;;;;;;;6.30;5.75;;;;;;;15.74;100.00;101580.69;6220606;28;20193;-71
2021/09/10 05:37:36;;;;;;;10.27;6.97;;;;;;;15.77;100.00;101583.78;6219475;28;20253;-72
2021/09/10 05:40:40;;;;;;;6.90;5.90;;;;;;;15.79;100.00;101595.44;6220797;28;20219;-71
2021/09/10 05:43:45;;;;;;;7.93;5.95;;;;;;;15.90;99.13;101589.13;6219887;28;20186;-72
2021/09/10 05:46:49;;;;;;;8.20;5.93;;;;;;;15.83;100.00;101591.13;6218770;28;20497;-71
2021/09/10 05:49:53;;;;;;;7.07;6.38;;;;;;;15.88;99.75;101587.66;6219905;28;20197;-72
2021/09/10 05:53:01;;;;;;;16.75;7.43;;;;;;;16.04;98.56;101596.13;6220216;28;20254;-71
2021/09/10 05:56:05;;;;;;;13.73;7.05;;;;;;;15.96;98.59;101584.59;6218956;28;20186;-71
2021/09/10 05:59:12;;;;;;;13.80;7.15;;;;;;;15.85;100.00;101588.97;6220002;28;20273;-72
2021/09/10 06:02:17;;;;;;;8.68;6.60;;;;;;;15.72;100.00;101591.91;6220159;28;20245;-72
2021/09/10 06:05:22;;;;;;;11.43;7.45;;;;;;;15.74;100.00;101592.50;6219062;28;20253;-72
2021/09/10 06:08:27;;;;;;;14.38;7.22;;;;;;;15.85;100.00;101602.72;6219521;28;20194;-72
2021/09/10 06:11:32;;;;;;;12.50;7.32;;;;;;;15.79;100.00;101600.09;6219230;28;20187;-72
2021/09/10 06:14:36;;;;;;;12.30;6.88;;;;;;;15.89;100.00;101590.19;6219895;28;20186;-72
2021/09/10 06:17:40;;;;;;;15.88;7.70;;;;;;;15.89;100.00;101601.22;6220053;28;20249;-71
2021/09/10 06:20:44;;;;;;;11.90;7.63;;;;;;;15.82;100.00;101605.94;6218701;28;20221;-71
2021/09/10 06:23:51;;;;;;;11.77;8.45;;;;;;;15.76;100.00;101612.41;6218987;28;20280;-71
2021/09/10 06:26:57;;;;;;;14.15;7.70;;;;;;;15.78;100.00;101604.75;6218896;28;20367;-72
2021/09/10 06:30:01;;;;;;;15.98;8.25;;;;;;;15.98;100.00;101616.31;6217902;28;20221;-71
2021/09/10 06:33:05;;;;;;;12.43;8.32;;;;;;;15.94;100.00;101615.09;6218747;28;20186;-71
2021/09/10 06:36:11;;;;;;;11.93;8.25;;;;;;;16.01;100.00;101615.84;6218261;28;20221;-71
2021/09/10 06:39:17;;;;;;;13.82;8.32;;;;;;;15.96;100.00;101623.13;6219422;28;20249;-71
2021/09/10 06:42:22;;;;;;;12.95;8.13;;;;;;;15.81;100.00;101626.28;6219036;28;20191;-71
2021/09/10 06:45:26;;;;;;;11.85;8.50;;;;;;;15.84;100.00;101625.84;6218015;28;20376;-71
2021/09/10 06:48:31;;;;;;;18.38;9.18;;;;;;;15.84;100.00;101628.59;6219010;28;20315;-72
2021/09/10 06:51:35;;;;;;;14.23;8.77;;;;;;;15.88;100.00;101640.78;6218924;28;20186;-71
2021/09/10 06:54:41;;;;;;;13.57;8.05;;;;;;;16.00;100.00;101624.31;6219297;28;20186;-71
2021/09/10 06:57:45;;;;;;;17.40;8.45;;;;;;;16.03;100.00;101638.47;6218598;28;20489;-71
2021/09/10 07:00:50;;;;;;;14.32;8.05;;;;;;;16.10;100.00;101630.94;6217701;28;20581;-71
2021/09/10 07:03:54;;;;;;;13.57;7.88;;;;;;;16.14;100.00;101637.69;6216848;28;20238;-72
2021/09/10 07:06:59;;;;;;;17.73;8.63;;;;;;;15.89;100.00;101639.75;6214129;28;20241;-72
2021/09/10 07:10:09;;;;;;;14.57;8.27;;;;;;;16.07;100.00;101636.94;6214739;28;20217;-72
2021/09/10 07:13:15;;;;;;;12.38;8.02;;;;;;;16.17;100.00;101648.22;6214227;28;20190;-72
2021/09/10 07:16:19;;;;;;;12.50;8.73;;;;;;;16.20;100.00;101658.75;6213791;28;20363;-72
2021/09/10 07:19:23;;;;;;;13.05;8.50;;;;;;;16.02;100.00;101650.53;6214879;28;20222;-72
2021/09/10 07:22:28;;;;;;;10.82;7.82;;;;;;;16.20;100.00;101650.47;6213644;28;20481;-72
2021/09/10 07:25:33;;;;;;;12.40;8.10;;;;;;;16.19;100.00;101657.09;6214415;28;20190;-72
2021/09/10 07:28:37;;;;;;;12.00;8.77;;;;;;;16.24;100.00;101648.97;6213294;28;20200;-72
2021/09/10 07:31:42;;;;;;;17.48;9.18;;;;;;;16.29;100.00;101662.88;6214725;28;20253;-72
2021/09/10 07:34:46;;;;;;;13.15;8.25;;;;;;;16.24;100.00;101654.47;6214393;28;20232;-72
2021/09/10 07:37:50;;;;;;;13.27;8.70;;;;;;;16.31;100.00;101661.81;6213583;28;20261;-72
2021/09/10 07:40:55;;;;;;;17.38;8.63;;;;;;;16.49;98.36;101656.19;6214188;28;20252;-72
2021/09/10 07:43:59;;;;;;;14.35;7.97;;;;;;;16.41;98.67;101664.81;6213324;28;20497;-72
2021/09/10 07:47:04;;;;;;;11.20;7.97;;;;;;;16.34;99.28;101661.31;6213169;28;20443;-72
2021/09/10 07:50:10;;;;;;;20.73;8.52;;;;;;;16.38;99.08;101662.53;6213594;28;20195;-72
2021/09/10 07:53:14;;;;;;;17.67;8.55;;;;;;;16.38;99.23;101662.53;6212952;28;20383;-72
2021/09/10 07:56:20;;;;;;;12.82;9.07;;;;;;;16.29;99.45;101664.78;6214181;28;20186;-72
2021/09/10 07:59:24;;;;;;;12.35;8.63;;;;;;;16.40;99.12;101663.13;6213788;28;20225;-72
2021/09/10 08:02:32;;;;;;;20.35;8.82;;;;;;;16.55;97.67;101666.31;6213163;28;20296;-72
2021/09/10 08:05:37;;;;;;;13.25;8.65;;;;;;;16.32;99.32;101663.47;6212573;28;20409;-72
2021/09/10 08:08:42;;;;;;;13.80;8.13;;;;;;;16.38;99.02;101662.53;6213836;28;20222;-72
2021/09/10 08:11:47;;;;;;;11.27;8.32;;;;;;;16.50;98.39;101668.91;6213649;28;20213;-72
2021/09/10 08:14:51;;;;;;;8.95;7.93;;;;;;;16.44;98.55;101665.16;6213191;28;20193;-72
2021/09/10 08:17:55;;;;;;;13.82;7.80;;;;;;;16.67;97.42;101662.50;6212522;28;20186;-72
2021/09/10 08:21:03;;;;;;;17.40;8.82;;;;;;;16.73;97.41;101674.50;6212350;28;20217;-72
2021/09/10 08:24:09;;;;;;;11.15;7.93;;;;;;;16.55;97.49;101674.56;6213035;28;20202;-72
2021/09/10 08:27:16;;;;;;;11.07;7.03;;;;;;;16.55;97.40;101678.16;6212361;28;20524;-72
2021/09/10 08:30:27;;;;;;;12.48;7.40;;;;;;;16.71;97.12;101671.13;6212587;28;20198;-72
2021/09/10 08:33:32;;;;;;;13.05;7.80;;;;;;;16.80;96.15;101675.22;6212925;28;20186;-72
2021/09/10 08:36:37;;;;;;;9.18;7.43;;;;;;;16.77;96.28;101670.16;6212579;28;20224;-72
2021/09/10 08:39:41;;;;;;;12.15;7.70;;;;;;;16.79;96.01;101679.88;6212031;28;20445;-73
2021/09/10 08:42:46;;;;;;;13.63;7.15;;;;;;;16.98;94.77;101682.53;6213520;28;20232;-72
2021/09/10 08:45:51;;;;;;;11.45;6.95;;;;;;;16.93;94.77;101680.50;6213264;28;20194;-72
2021/09/10 08:48:55;;;;;;;12.60;7.38;;;;;;;17.02;94.61;101684.59;6214791;28;20194;-72
2021/09/10 08:51:59;;;;;;;9.25;6.07;;;;;;;16.67;96.00;101697.47;6219872;28;20213;-72
2021/09/10 08:55:06;;;;;;;14.85;6.57;;;;;;;16.63;97.11;101690.75;6221872;28;20193;-72
2021/09/10 08:58:11;;;;;;;6.72;6.13;;;;;;;16.60;97.53;101696.75;6223464;28;20237;-72
2021/09/10 09:01:15;;;;;;;13.25;6.18;;;;;;;16.57;97.59;101694.47;6223046;28;20240;-72
2021/09/10 09:04:21;;;;;;;6.97;6.20;;;;;;;16.51;98.00;101681.63;6222334;28;20245;-72
2021/09/10 09:07:26;;;;;;;9.07;7.05;;;;;;;16.40;98.80;101691.50;6221183;28;20190;-72
2021/09/10 09:10:50;;;;;;;7.55;6.45;;;;;;;16.19;99.99;101683.78;6220471;28;20284;-72
2021/09/10 09:13:58;;;;;;;13.05;6.85;;;;;;;16.16;100.00;101690.59;6219102;28;20194;-72
2021/09/10 09:17:18;;;;;;;7.60;6.35;;;;;;;16.14;100.00;101683.63;6218028;28;20549;-72
2021/09/10 09:20:24;;;;;;;8.10;6.80;;;;;;;16.50;99.46;101685.44;6217631;28;20351;-72
2021/09/10 09:23:28;;;;;;;14.52;7.80;;;;;;;16.72;96.79;101690.19;6217456;28;20193;-73
2021/09/10 09:26:33;;;;;;;19.23;6.70;;;;;;;16.70;96.74;101680.47;6215405;28;20418;-73
2021/09/10 09:29:50;;;;;;;12.32;6.93;;;;;;;16.69;96.50;101684.31;6216105;28;20186;-72
2021/09/10 09:32:55;;;;;;;15.70;7.50;;;;;;;16.60;97.26;101682.97;6215850;28;20218;-72
2021/09/10 09:36:01;;;;;;;8.52;7.63;;;;;;;16.51;97.36;101668.66;6218181;28;20225;-72
2021/09/10 09:39:11;;;;;;;8.73;7.60;;;;;;;16.65;97.22;101674.84;6220809;28;20379;-72
2021/09/10 09:42:24;;;;;;;9.20;7.03;;;;;;;16.60;97.14;101672.78;6221467;28;20465;-72
2021/09/10 09:45:37;;;;;;;7.70;6.95;;;;;;;16.65;96.15;101677.59;6222274;28;20233;-72
2021/09/10 09:48:45;;;;;;;8.43;7.53;;;;;;;16.53;96.90;101663.81;6223717;28;20534;-72
2021/09/10 09:52:01;;;;;;;10.13;6.25;;;;;;;16.51;96.58;101671.41;6222477;28;20513;-72
2021/09/10 09:55:15;;;;;;;7.78;6.47;;;;;;;16.62;96.69;101672.53;6219165;28;20202;-73
2021/09/10 09:58:19;;;;;;;9.57;7.53;;;;;;;16.76;96.43;101679.53;6220855;28;20261;-72
2021/09/10 10:01:25;;;;;;;9.27;6.20;;;;;;;16.77;95.18;101664.66;6219263;28;20233;-72
2021/09/10 10:04:47;;;;;;;6.53;5.93;;;;;;;16.78;94.53;101677.38;6220663;28;20481;-72
2021/09/10 10:08:07;;;;;;;7.82;5.85;;;;;;;16.86;93.71;101669.59;6221365;28;20186;-73
2021/09/10 10:11:26;;;;;;;8.20;5.55;;;;;;;16.91;93.60;101666.13;6220555;28;20197;-72
2021/09/10 10:15:24;;;;;;;6.03;5.63;;;;;;;16.95;92.39;101661.78;6222700;28;20270;-72
2021/09/10 10:18:53;;;;;;;7.20;5.70;;;;;;;16.78;94.37;101655.31;6222640;28;20187;-72
2021/09/10 10:22:14;;;;;;;11.23;5.55;;;;;;;16.97;94.12;101670.69;6224230;28;20230;-73
2021/09/10 10:26:06;;;;;;;5.72;5.32;;;;;;;16.87;93.82;101662.19;6222317;28;20187;-72
2021/09/10 10:29:37;;;;;;;5.03;4.80;;;;;;;16.91;93.81;101660.63;6223944;28;20202;-72
2021/09/10 10:32:56;;;;;;;5.30;4.90;;;;;;;16.98;93.15;101661.31;6220219;28;20210;-73
2021/09/10 10:36:35;;;;;;;5.80;5.25;;;;;;;16.96;93.05;101652.47;6221822;28;20261;-72
2021/09/10 10:40:47;;;;;;;7.15;5.18;;;;;;;16.78;92.98;101666.34;6222891;28;20186;-73
2021/09/10 10:44:54;;;;;;;5.20;4.88;;;;;;;16.94;92.59;101673.91;6220436;28;20202;-72
2021/09/10 10:48:47;;;;;;;5.15;4.70;;;;;;;16.95;92.02;101678.34;6122454;29;20253;-72
2021/09/10 10:52:35;;;;;;;5.90;5.05;;;;;;;16.89;91.93;101674.66;6130114;28;20512;-73
2021/09/10 10:55:57;;;;;;;5.05;4.57;;;;;;;16.89;92.07;101671.03;6221233;28;20466;-72
2021/09/10 10:59:31;;;;;;;5.78;5.43;;;;;;;16.86;92.85;101675.13;6219301;28;20206;-71
2021/09/10 11:03:47;;;;;;;11.70;5.38;;;;;;;17.07;91.15;101681.97;6219146;28;20269;-70
2021/09/10 11:07:10;;;;;;;7.22;4.68;;;;;;;17.02;91.26;101668.06;6221904;28;20257;-72
2021/09/10 11:10:37;;;;;;;5.35;5.05;;;;;;;16.98;91.31;101655.81;6214581;28;20229;-71
2021/09/10 11:14:07;;;;;;;4.65;4.28;;;;;;;17.17;91.00;101662.06;6212082;28;20229;-71
2021/09/10 11:17:35;;;;;;;4.70;4.22;;;;;;;17.18;90.67;101659.03;6217878;28;20440;-72
2021/09/10 11:21:05;;;;;;;6.05;3.85;;;;;;;16.98;89.78;101661.31;6186837;28;20520;-71
2021/09/10 11:24:32;;;;;;;4.65;4.45;;;;;;;16.99;90.39;101653.91;6161634;28;20253;-71
2021/09/10 11:27:57;;;;;;;4.13;4.03;;;;;;;17.09;90.35;101654.97;6218775;28;20183;-72
2021/09/10 11:31:25;;;;;;;3.85;3.47;;;;;;;17.13;88.82;101645.13;6218659;28;20200;-72
2021/09/10 11:35:03;;;;;;;4.10;4.00;;;;;;;17.21;90.12;101642.00;6217948;28;20233;-72
2021/09/10 11:38:28;;;;;;;3.83;3.72;;;;;;;17.17;89.59;101638.06;6227778;28;20182;-72
2021/09/10 11:42:03;;;;;;;4.20;3.95;;;;;;;17.08;89.91;101650.53;6121572;29;20232;-72
2021/09/10 11:45:31;;;;;;;4.05;3.95;;;;;;;17.26;89.96;101641.28;6218316;28;20225;-72
2021/09/10 11:48:59;;;;;;;4.13;3.83;;;;;;;17.30;89.89;101643.34;6221555;28;20178;-73
2021/09/10 11:52:31;;;;;;;3.45;3.35;;;;;;;17.25;88.94;101651.50;6196947;28;20252;-72
2021/09/10 11:56:01;;;;;;;3.70;3.50;;;;;;;17.22;89.48;101638.19;6222181;28;20174;-72
2021/09/10 11:59:46;;;;;;;3.78;3.67;;;;;;;17.43;89.17;101648.59;6222762;28;20285;-72
2021/09/10 12:03:11;;;;;;;3.67;3.28;;;;;;;17.43;88.58;101654.13;6221223;28;20249;-72
2021/09/10 12:06:19;;;;;;;4.00;3.80;;;;;;;17.50;87.80;101643.78;6220013;28;20493;-72
2021/09/10 12:09:24;;;;;;;3.85;3.47;;;;;;;17.66;87.31;101641.38;6220449;28;20186;-72
2021/09/10 12:12:30;;;;;;;9.73;4.15;;;;;;;17.62;87.21;101640.16;6221135;28;20190;-72
2021/09/10 12:15:38;;;;;;;3.72;3.63;;;;;;;17.46;87.98;101642.56;6218518;28;20192;-72
2021/09/10 12:19:03;;;;;;;3.72;3.53;;;;;;;17.48;89.07;101626.63;6217583;28;20187;-72
2021/09/10 12:22:35;;;;;;;5.35;3.30;;;;;;;17.27;89.25;101621.75;6216988;28;20258;-72
2021/09/10 12:25:49;;;;;;;3.25;3.00;;;;;;;17.32;89.69;101619.09;6217534;28;20186;-72
2021/09/10 12:29:04;;;;;;;3.78;3.50;;;;;;;17.37;90.02;101621.97;6219081;28;20186;-72
2021/09/10 12:32:11;;;;;;;4.63;3.75;;;;;;;17.47;89.41;101621.34;6216988;28;20513;-72
2021/09/10 12:35:18;;;;;;;3.92;3.70;;;;;;;17.54;88.94;101615.75;6216037;28;20680;-72
2021/09/10 12:38:24;;;;;;;3.80;3.70;;;;;;;17.28;89.78;101623.41;6216698;28;20254;-72
2021/09/10 12:41:29;;;;;;;4.35;4.03;;;;;;;17.36;91.41;101614.78;6216448;28;20193;-73
2021/09/10 12:44:33;;;;;;;4.10;3.80;;;;;;;17.63;87.77;101608.75;6216962;28;20525;-70
2021/09/10 12:47:38;;;;;;;4.30;3.97;;;;;;;17.65;87.79;101617.59;6217939;28;20186;-71
2021/09/10 12:50:45;;;;;;;5.75;4.30;;;;;;;17.72;87.00;101616.38;6217701;28;20210;-71
2021/09/10 12:53:50;;;;;;;4.45;4.03;;;;;;;17.58;87.69;101611.41;6218673;28;20190;-71
2021/09/10 12:56:57;;;;;;;4.22;4.03;;;;;;;17.50;88.66;101609.81;6219897;28;20194;-71
2021/09/10 13:00:03;;;;;;;4.10;3.80;;;;;;;17.65;87.87;101601.91;6220790;28;20409;-71
2021/09/10 13:03:17;;;;;;;4.00;3.90;;;;;;;17.72;87.22;101604.53;6221010;28;20241;-71
2021/09/10 13:06:23;;;;;;;4.32;4.03;;;;;;;17.71;87.60;101606.44;6222266;28;20246;-71
2021/09/10 13:09:28;;;;;;;4.28;4.07;;;;;;;17.66;88.41;101602.75;6225420;28;20221;-71
2021/09/10 13:12:32;;;;;;;5.05;4.57;;;;;;;17.51;89.50;101601.28;6226201;28;20245;-71
2021/09/10 13:15:38;;;;;;;4.07;3.88;;;;;;;17.44;90.02;101606.13;6223029;28;20579;-71
2021/09/10 13:18:42;;;;;;;4.32;4.13;;;;;;;17.51;89.49;101598.53;6224673;28;20249;-71
2021/09/10 13:21:49;;;;;;;4.90;4.38;;;;;;;17.72;88.27;101596.25;6223178;28;20253;-71
2021/09/10 13:24:53;;;;;;;4.43;4.25;;;;;;;17.68;88.43;101589.53;6220356;28;20384;-71
2021/09/10 13:27:59;;;;;;;4.65;4.20;;;;;;;17.80;87.81;101599.44;6219656;28;20194;-71
2021/09/10 13:31:04;;;;;;;4.55;4.15;;;;;;;17.80;87.64;101593.06;6220310;28;20326;-71
2021/09/10 13:34:10;;;;;;;4.20;3.90;;;;;;;17.80;87.46;101598.59;6218827;28;20191;-71
2021/09/10 13:37:17;;;;;;;3.90;3.80;;;;;;;17.74;87.62;101600.44;6219456;28;20501;-72
2021/09/10 13:40:22;;;;;;;12.27;4.70;;;;;;;17.71;87.95;101583.53;6220097;28;20210;-71
2021/09/10 13:43:26;;;;;;;4.30;4.00;;;;;;;17.64;88.91;101591.13;6218917;28;20272;-73
2021/09/10 13:46:34;;;;;;;4.03;3.92;;;;;;;17.60;90.10;101581.63;6219348;28;20198;-71
2021/09/10 13:49:42;;;;;;;4.50;4.25;;;;;;;17.41;90.77;101598.31;6220506;28;20198;-71
2021/09/10 13:53:04;;;;;;;4.65;4.45;;;;;;;17.58;90.05;101594.84;6220051;28;20240;-71
2021/09/10 13:56:29;;;;;;;4.82;4.60;;;;;;;17.43;90.77;101598.09;6220438;28;20257;-71
2021/09/10 13:59:53;;;;;;;4.47;4.38;;;;;;;17.46;90.00;101587.41;6217924;28;20206;-71
2021/09/10 14:03:18;;;;;;;5.15;4.75;;;;;;;17.56;89.04;101591.50;6220247;28;20257;-71
2021/09/10 14:06:36;;;;;;;4.75;4.55;;;;;;;17.47;90.06;101604.78;6219247;28;20196;-71
2021/09/10 14:09:43;;;;;;;4.85;4.65;;;;;;;17.62;88.66;101590.50;6220052;28;20186;-71
2021/09/10 14:12:48;;;;;;;4.95;4.57;;;;;;;17.62;88.79;101596.00;6219052;28;20481;-71
2021/09/10 14:15:52;;;;;;;4.88;4.57;;;;;;;17.59;88.96;101591.00;6220598;28;20186;-71
2021/09/10 14:18:59;;;;;;;3.90;3.80;;;;;;;17.50;89.45;101583.09;6219186;28;20224;-72
2021/09/10 14:22:06;;;;;;;7.40;4.20;;;;;;;17.49;89.81;101586.91;6217731;28;20190;-71
2021/09/10 14:25:13;;;;;;;4.38;4.18;;;;;;;17.58;89.46;101586.56;6218183;28;20218;-72
2021/09/10 14:28:17;;;;;;;5.03;4.60;;;;;;;17.59;89.55;101588.25;6218572;28;20194;-71
2021/09/10 14:31:21;;;;;;;4.40;4.20;;;;;;;17.60;89.73;101587.16;6219729;28;20268;-71
2021/09/10 14:34:43;;;;;;;4.72;4.32;;;;;;;17.55;90.73;101584.28;6217600;28;20376;-71
2021/09/10 14:37:47;;;;;;;4.97;4.78;;;;;;;17.33;92.30;101587.66;6218181;28;20213;-71
2021/09/10 14:41:13;;;;;;;4.88;4.55;;;;;;;17.38;91.96;101589.72;6218724;28;20494;-72